Time;durP1;ratioP1;P1;durP2;ratioP2;P2;SDS_P1;SDS_P2;PMS_P1;PMS_P2;Temp;Humidity;BMP_temperature;BMP_pressure;BME280_temperature;BME280_humidity;BME280_pressure;Samples;Min_cycle;Max_cycle;Signal;HPM_P1;HPM_P2
2021/06/23 00:00:37;;;;;;;14.97;4.33;;;12.80;99.90;;;;;;5072764;28;20759;-77
2021/06/23 00:03:05;;;;;;;13.33;4.57;;;12.80;99.90;;;;;;5073500;28;20207;-77
2021/06/23 00:05:32;;;;;;;14.60;4.20;;;12.80;99.90;;;;;;5073144;28;20615;-76
2021/06/23 00:08:00;;;;;;;14.10;4.33;;;12.70;99.90;;;;;;5073539;28;20294;-77
2021/06/23 00:10:28;;;;;;;12.37;4.13;;;12.60;99.90;;;;;;5073270;28;20681;-77
2021/06/23 00:13:00;;;;;;;11.73;4.07;;;12.40;99.90;;;;;;5073000;28;20310;-77
2021/06/23 00:15:27;;;;;;;13.40;4.00;;;12.40;99.90;;;;;;5073243;28;20306;-77
2021/06/23 00:17:53;;;;;;;19.00;4.37;;;12.40;99.90;;;;;;5073354;28;20230;-77
2021/06/23 00:20:21;;;;;;;10.87;3.70;;;12.40;99.90;;;;;;5073972;28;20242;-77
2021/06/23 00:22:48;;;;;;;12.90;3.37;;;12.40;99.90;;;;;;5073419;28;20557;-77
2021/06/23 00:25:17;;;;;;;7.90;3.80;;;12.40;99.90;;;;;;5073677;28;20232;-77
2021/06/23 00:27:43;;;;;;;10.93;4.30;;;12.40;99.90;;;;;;5073283;28;20751;-77
2021/06/23 00:30:11;;;;;;;13.67;4.50;;;12.40;99.90;;;;;;5073550;28;20354;-77
2021/06/23 00:32:41;;;;;;;9.63;3.67;;;12.50;99.90;;;;;;5073389;28;20235;-78
2021/06/23 00:35:09;;;;;;;13.07;3.50;;;12.50;99.90;;;;;;5073903;28;20241;-77
2021/06/23 00:37:36;;;;;;;9.63;3.07;;;12.50;99.90;;;;;;5073201;28;20212;-77
2021/06/23 00:40:04;;;;;;;15.33;3.33;;;12.40;99.90;;;;;;5073242;28;20222;-77
2021/06/23 00:42:34;;;;;;;10.80;3.43;;;12.40;99.90;;;;;;5072949;28;20278;-77
2021/06/23 00:45:02;;;;;;;7.73;3.23;;;12.40;99.90;;;;;;5072321;28;20239;-77
2021/06/23 00:47:29;;;;;;;9.07;3.00;;;12.40;99.90;;;;;;5058756;28;20295;-77
2021/06/23 00:49:58;;;;;;;11.90;3.73;;;12.40;99.90;;;;;;5072537;28;20208;-77
2021/06/23 00:52:25;;;;;;;14.07;3.20;;;12.50;99.90;;;;;;5072102;28;20294;-77
2021/06/23 00:54:53;;;;;;;9.07;3.03;;;12.60;99.90;;;;;;5072472;28;20231;-78
2021/06/23 00:57:21;;;;;;;7.07;3.00;;;12.60;99.90;;;;;;5071984;28;20293;-77
2021/06/23 00:59:52;;;;;;;11.17;3.20;;;12.60;99.90;;;;;;5072299;28;20219;-77
2021/06/23 01:02:20;;;;;;;9.03;3.07;;;12.60;99.90;;;;;;5072482;28;20237;-77
2021/06/23 01:04:48;;;;;;;7.53;3.20;;;12.50;99.90;;;;;;5072325;28;20272;-77
2021/06/23 01:07:15;;;;;;;16.83;4.20;;;12.40;99.90;;;;;;5071939;28;20295;-77
2021/06/23 01:09:42;;;;;;;12.03;3.50;;;12.40;99.90;;;;;;5071990;28;20200;-77
2021/06/23 01:12:21;;;;;;;13.67;3.47;;;12.40;99.90;;;;;;5071856;28;20568;-77
2021/06/23 01:14:53;;;;;;;10.60;4.27;;;12.30;99.90;;;;;;5059587;28;20195;-77
2021/06/23 01:17:21;;;;;;;13.07;4.57;;;12.20;99.90;;;;;;5072733;28;20210;-77
2021/06/23 01:19:50;;;;;;;10.47;3.97;;;12.20;99.90;;;;;;5059150;28;20249;-77
2021/06/23 01:22:18;;;;;;;13.03;4.67;;;12.20;99.90;;;;;;5072452;28;20200;-77
2021/06/23 01:24:45;;;;;;;9.73;4.73;;;12.20;99.90;;;;;;5072196;28;20316;-77
2021/06/23 01:27:13;;;;;;;14.50;5.00;;;12.30;99.90;;;;;;5072673;28;20204;-77
2021/06/23 01:29:40;;;;;;;9.47;5.10;;;12.20;99.90;;;;;;5072725;28;20222;-77
2021/06/23 01:32:09;;;;;;;12.00;5.50;;;12.30;99.90;;;;;;5072632;28;20202;-77
2021/06/23 01:34:37;;;;;;;13.27;5.60;;;12.20;99.90;;;;;;5072414;28;20200;-77
2021/06/23 01:37:04;;;;;;;14.63;5.97;;;12.30;99.90;;;;;;5072581;28;20278;-77
2021/06/23 01:39:32;;;;;;;11.77;5.97;;;12.30;99.90;;;;;;5071927;28;20292;-77
2021/06/23 01:41:59;;;;;;;16.73;6.83;;;12.20;99.90;;;;;;5072097;28;20232;-77
2021/06/23 01:44:28;;;;;;;19.03;7.47;;;12.20;99.90;;;;;;5072627;28;20308;-77
2021/06/23 01:46:55;;;;;;;16.40;7.97;;;12.10;99.90;;;;;;5072278;28;20293;-77
2021/06/23 01:49:24;;;;;;;20.00;8.67;;;12.00;99.90;;;;;;5072813;28;20253;-77
2021/06/23 01:51:50;;;;;;;17.40;8.53;;;12.00;99.90;;;;;;5072165;28;20203;-77
2021/06/23 01:54:17;;;;;;;20.87;8.67;;;12.00;99.90;;;;;;5072557;28;20246;-77
2021/06/23 01:56:46;;;;;;;25.43;9.63;;;12.00;99.90;;;;;;5072406;28;20210;-77
2021/06/23 01:59:14;;;;;;;14.10;8.50;;;12.00;99.90;;;;;;5072154;28;20227;-77
2021/06/23 02:01:52;;;;;;;19.70;9.00;;;12.00;99.90;;;;;;5072253;28;20210;-77
2021/06/23 02:04:33;;;;;;;18.43;9.23;;;12.00;99.90;;;;;;5072139;28;20229;-77
2021/06/23 02:07:16;;;;;;;19.23;9.07;;;12.00;99.90;;;;;;5069870;28;20643;-77
2021/06/23 02:10:05;;;;;;;19.40;9.90;;;12.00;99.90;;;;;;5072105;28;20353;-77
2021/06/23 02:13:02;;;;;;;14.57;9.67;;;12.00;99.90;;;;;;5071653;28;20286;-77
2021/06/23 02:15:30;;;;;;;17.27;8.47;;;12.00;99.90;;;;;;5060296;28;20245;-76
2021/06/23 02:17:58;;;;;;;16.67;9.30;;;12.10;99.90;;;;;;5071934;28;20657;-77
2021/06/23 02:20:27;;;;;;;21.70;10.20;;;12.10;99.90;;;;;;5072280;28;20215;-77
2021/06/23 02:22:54;;;;;;;21.47;9.70;;;12.20;99.90;;;;;;5071727;28;20244;-77
2021/06/23 02:25:21;;;;;;;15.93;9.50;;;12.20;99.90;;;;;;5074546;28;20296;-78
2021/06/23 02:27:49;;;;;;;21.50;9.23;;;12.40;99.90;;;;;;5076297;28;20233;-77
2021/06/23 02:30:17;;;;;;;21.60;9.77;;;12.50;99.90;;;;;;5075730;28;20291;-77
2021/06/23 02:32:45;;;;;;;16.13;8.57;;;12.50;99.90;;;;;;5067570;28;20286;-77
2021/06/23 02:35:13;;;;;;;17.17;9.03;;;12.60;99.90;;;;;;5075921;28;20290;-78
2021/06/23 02:37:40;;;;;;;20.77;9.73;;;12.60;99.90;;;;;;5075479;28;20633;-77
2021/06/23 02:40:09;;;;;;;18.20;9.47;;;12.50;99.90;;;;;;5075688;28;20230;-78
2021/06/23 02:42:36;;;;;;;17.33;8.50;;;12.60;99.90;;;;;;5075450;28;20233;-78
2021/06/23 02:45:06;;;;;;;18.70;9.30;;;12.70;99.90;;;;;;5075605;28;20230;-78
2021/06/23 02:47:33;;;;;;;15.00;9.03;;;12.70;99.90;;;;;;5075024;28;20217;-77
2021/06/23 02:50:01;;;;;;;24.27;10.33;;;12.80;99.90;;;;;;5075828;28;20294;-78
2021/06/23 02:52:30;;;;;;;17.63;9.03;;;12.70;99.90;;;;;;5075263;28;20206;-78
2021/06/23 02:54:57;;;;;;;19.13;9.50;;;12.70;99.90;;;;;;5075742;28;20234;-77
2021/06/23 02:57:24;;;;;;;14.60;9.13;;;12.60;99.90;;;;;;5074926;28;20754;-77
2021/06/23 02:59:51;;;;;;;13.60;8.47;;;12.60;99.90;;;;;;5067119;28;20557;-78
2021/06/23 03:04:49;;;;;;;18.23;9.33;;;12.70;99.90;;;;;;5046056;28;20694;-79
2021/06/23 03:07:17;;;;;;;17.83;9.27;;;12.70;99.90;;;;;;5056379;28;20231;-81
2021/06/23 03:09:45;;;;;;;25.60;10.17;;;12.70;99.90;;;;;;5058829;28;20230;-82
2021/06/23 03:12:13;;;;;;;17.13;9.70;;;12.70;99.90;;;;;;5058325;28;20264;-80
2021/06/23 03:14:40;;;;;;;16.00;9.30;;;12.60;99.90;;;;;;5056534;28;20272;-81
2021/06/23 03:17:07;;;;;;;17.77;9.47;;;12.50;99.90;;;;;;5051495;28;20295;-80
2021/06/23 03:19:34;;;;;;;17.87;9.27;;;12.50;99.90;;;;;;5042950;28;20287;-79
2021/06/23 03:22:05;;;;;;;22.47;8.73;;;12.40;99.90;;;;;;5055775;28;20732;-79
2021/06/23 03:24:32;;;;;;;25.07;9.70;;;12.50;99.90;;;;;;5055559;28;20288;-84
2021/06/23 03:27:00;;;;;;;20.80;9.33;;;12.60;99.90;;;;;;5056512;28;20291;-81
2021/06/23 03:29:30;;;;;;;24.73;10.93;;;12.60;99.90;;;;;;5056731;28;20244;-84
2021/06/23 03:31:57;;;;;;;15.73;9.57;;;12.60;99.90;;;;;;5056411;28;20208;-80
2021/06/23 03:34:24;;;;;;;17.77;10.03;;;12.60;99.90;;;;;;5057272;28;20250;-80
2021/06/23 03:36:52;;;;;;;16.70;9.67;;;12.60;99.90;;;;;;5055849;28;20761;-84
2021/06/23 03:39:20;;;;;;;24.13;10.27;;;12.60;99.90;;;;;;5057174;28;20666;-85
2021/06/23 03:41:47;;;;;;;14.27;9.33;;;12.60;99.90;;;;;;5056298;28;20200;-80
2021/06/23 03:44:14;;;;;;;18.50;9.53;;;12.60;99.90;;;;;;5056972;28;20215;-80
2021/06/23 03:46:41;;;;;;;18.50;9.53;;;12.60;99.90;;;;;;5057090;28;20287;-80
2021/06/23 03:49:08;;;;;;;23.87;9.80;;;12.60;99.90;;;;;;5056524;28;20204;-80
2021/06/23 03:51:35;;;;;;;22.43;9.97;;;12.60;99.90;;;;;;5056794;28;20235;-84
2021/06/23 03:54:02;;;;;;;17.07;9.23;;;12.70;99.90;;;;;;5046548;28;20308;-80
2021/06/23 03:56:31;;;;;;;19.07;9.63;;;12.60;99.90;;;;;;5051757;28;20242;-82
2021/06/23 03:58:58;;;;;;;17.47;9.40;;;12.50;99.90;;;;;;5056161;28;20283;-80
2021/06/23 04:01:25;;;;;;;19.50;9.73;;;12.50;99.90;;;;;;5056812;28;20228;-79
2021/06/23 04:03:53;;;;;;;19.83;9.97;;;12.50;99.90;;;;;;5056182;28;20274;-79
2021/06/23 04:06:19;;;;;;;20.60;10.23;;;12.50;99.90;;;;;;5056748;28;20252;-81
2021/06/23 04:08:46;;;;;;;20.07;10.50;;;12.40;99.90;;;;;;5056232;28;20784;-83
2021/06/23 04:11:14;;;;;;;21.37;10.40;;;12.50;99.90;;;;;;5055190;28;20863;-79
2021/06/23 04:13:42;;;;;;;17.70;10.53;;;12.70;99.90;;;;;;5055562;28;20192;-82
2021/06/23 04:16:09;;;;;;;21.90;11.20;;;12.70;99.90;;;;;;5055239;28;20617;-80
2021/06/23 04:18:36;;;;;;;20.00;11.27;;;12.70;99.90;;;;;;5055047;28;20224;-80
2021/06/23 04:21:03;;;;;;;21.57;11.37;;;12.70;99.90;;;;;;5054564;28;20227;-79
2021/06/23 04:23:30;;;;;;;18.37;11.03;;;12.80;99.90;;;;;;5041977;28;20288;-80
2021/06/23 04:25:57;;;;;;;17.23;10.50;;;12.80;99.90;;;;;;5054106;28;20306;-84
2021/06/23 04:28:24;;;;;;;26.20;11.67;;;12.60;99.90;;;;;;5054763;28;20287;-81
2021/06/23 04:30:52;;;;;;;17.83;11.50;;;12.60;99.90;;;;;;5050906;28;20291;-80
2021/06/23 04:33:19;;;;;;;25.57;11.60;;;12.70;99.90;;;;;;5044379;28;20200;-82
2021/06/23 04:35:47;;;;;;;20.03;11.20;;;12.80;99.90;;;;;;5055367;28;20295;-79
2021/06/23 04:38:14;;;;;;;17.40;11.63;;;12.70;99.90;;;;;;5054047;28;20287;-80
2021/06/23 04:40:41;;;;;;;22.33;12.30;;;12.70;99.90;;;;;;5054046;28;20295;-81
2021/06/23 04:43:08;;;;;;;19.97;11.23;;;12.70;99.90;;;;;;5057263;28;20559;-80
2021/06/23 04:45:35;;;;;;;20.80;11.97;;;12.70;99.90;;;;;;5057702;28;20270;-79
2021/06/23 04:48:03;;;;;;;19.07;11.43;;;12.80;99.90;;;;;;5053164;28;20224;-81
2021/06/23 04:50:30;;;;;;;18.53;10.90;;;12.80;99.90;;;;;;5054023;28;20302;-80
2021/06/23 04:52:57;;;;;;;17.07;11.53;;;12.60;99.90;;;;;;5053270;28;20286;-86
2021/06/23 04:55:24;;;;;;;19.93;11.77;;;12.60;99.90;;;;;;5054225;28;20210;-84
2021/06/23 04:57:51;;;;;;;18.27;11.53;;;12.60;99.90;;;;;;5053339;28;20204;-82
2021/06/23 05:00:20;;;;;;;23.60;11.07;;;12.50;99.90;;;;;;5053587;28;20283;-84
2021/06/23 05:02:47;;;;;;;24.70;12.57;;;12.50;99.90;;;;;;5053002;28;20593;-84
2021/06/23 05:05:15;;;;;;;20.67;11.37;;;12.60;99.90;;;;;;5052501;28;20773;-80
2021/06/23 05:07:42;;;;;;;24.07;11.83;;;12.60;99.90;;;;;;5052960;28;20291;-79
2021/06/23 05:10:10;;;;;;;18.67;11.07;;;12.70;99.90;;;;;;5052796;28;20644;-81
2021/06/23 05:12:37;;;;;;;20.77;11.13;;;12.70;99.90;;;;;;5052857;28;20309;-81
2021/06/23 05:15:05;;;;;;;17.40;10.67;;;12.70;99.90;;;;;;5045678;28;20224;-83
2021/06/23 05:17:32;;;;;;;17.40;10.00;;;12.70;99.90;;;;;;5048798;28;20277;-80
2021/06/23 05:20:01;;;;;;;25.97;11.47;;;12.80;99.90;;;;;;5051477;28;20200;-81
2021/06/23 05:22:29;;;;;;;25.00;11.53;;;12.90;99.90;;;;;;5049569;28;20849;-78
2021/06/23 05:24:58;;;;;;;15.23;9.87;;;12.90;99.90;;;;;;5051877;28;20295;-82
2021/06/23 05:27:25;;;;;;;15.53;10.53;;;13.00;99.90;;;;;;5052162;28;20280;-81
2021/06/23 05:29:52;;;;;;;21.07;10.90;;;12.90;99.90;;;;;;5051166;28;20200;-80
2021/06/23 05:32:19;;;;;;;24.17;11.33;;;13.00;99.90;;;;;;5052000;28;20236;-87
2021/06/23 05:34:46;;;;;;;20.40;10.67;;;13.00;99.90;;;;;;5052002;28;20204;-85
2021/06/23 05:37:13;;;;;;;15.93;10.20;;;13.00;99.90;;;;;;5052846;28;20210;-80
2021/06/23 05:39:42;;;;;;;23.20;9.87;;;13.10;99.90;;;;;;5044199;28;20226;-80
2021/06/23 05:42:09;;;;;;;22.27;10.47;;;13.00;99.90;;;;;;5050690;28;20220;-80
2021/06/23 05:44:36;;;;;;;15.87;9.13;;;12.90;99.90;;;;;;5050503;28;20271;-80
2021/06/23 05:47:03;;;;;;;17.07;10.03;;;12.90;99.90;;;;;;5052734;28;20223;-84
2021/06/23 05:49:30;;;;;;;23.73;9.90;;;12.90;99.90;;;;;;5044423;28;20195;-81
2021/06/23 05:51:57;;;;;;;21.50;10.50;;;12.90;99.90;;;;;;5052240;28;20212;-81
2021/06/23 05:54:24;;;;;;;16.47;9.27;;;12.90;99.90;;;;;;5050800;28;20306;-81
2021/06/23 05:56:52;;;;;;;18.77;10.43;;;13.00;99.90;;;;;;5051411;28;20290;-83
2021/06/23 05:59:19;;;;;;;19.97;9.70;;;13.00;99.90;;;;;;5052523;28;20286;-81
2021/06/23 06:01:46;;;;;;;17.63;10.67;;;13.00;99.90;;;;;;5056789;28;20274;-81
2021/06/23 06:04:13;;;;;;;21.60;10.40;;;13.00;99.90;;;;;;5056839;28;20254;-80
2021/06/23 06:06:40;;;;;;;18.87;10.57;;;13.00;99.90;;;;;;5056592;28;20697;-84
2021/06/23 06:09:07;;;;;;;21.40;11.27;;;13.10;99.90;;;;;;5056890;28;20235;-82
2021/06/23 06:11:34;;;;;;;21.30;9.73;;;13.00;99.90;;;;;;5056286;28;20215;-81
2021/06/23 06:14:02;;;;;;;21.40;11.13;;;13.00;99.90;;;;;;5056422;28;20685;-80
2021/06/23 06:16:29;;;;;;;20.27;10.87;;;13.10;99.90;;;;;;5056965;28;20686;-81
2021/06/23 06:18:56;;;;;;;17.47;10.27;;;13.10;99.90;;;;;;5056664;28;20287;-84
2021/06/23 06:21:24;;;;;;;15.00;9.60;;;13.30;99.90;;;;;;5056640;28;20200;-81
2021/06/23 06:23:51;;;;;;;16.87;10.47;;;13.40;99.90;;;;;;5056808;28;20242;-81
2021/06/23 06:26:18;;;;;;;20.23;10.73;;;13.60;99.90;;;;;;5056551;28;20266;-80
2021/06/23 06:28:45;;;;;;;18.50;10.83;;;13.70;99.90;;;;;;5056972;28;20253;-83
2021/06/23 06:31:13;;;;;;;19.00;9.70;;;13.60;99.90;;;;;;5057018;28;20273;-80
2021/06/23 06:33:40;;;;;;;17.90;10.13;;;13.50;99.90;;;;;;5056978;28;20224;-82
2021/06/23 06:36:08;;;;;;;17.63;10.40;;;13.80;99.90;;;;;;5056883;28;20228;-80
2021/06/23 06:38:34;;;;;;;23.47;10.40;;;13.90;99.90;;;;;;5056531;28;20765;-81
2021/06/23 06:41:02;;;;;;;18.50;9.80;;;13.90;99.90;;;;;;5056291;28;20253;-83
2021/06/23 06:43:29;;;;;;;19.40;10.77;;;13.70;99.90;;;;;;5056573;28;20200;-83
2021/06/23 06:45:56;;;;;;;17.67;10.83;;;13.80;99.90;;;;;;5056229;28;20255;-80
2021/06/23 06:48:24;;;;;;;20.73;10.17;;;13.90;99.90;;;;;;5056767;28;20258;-80
2021/06/23 06:50:52;;;;;;;17.70;9.83;;;14.00;99.90;;;;;;5056409;28;20291;-84
2021/06/23 06:53:19;;;;;;;18.40;9.93;;;13.90;99.90;;;;;;5055629;28;20208;-80
2021/06/23 06:55:47;;;;;;;21.13;10.20;;;13.60;99.90;;;;;;5056402;28;20232;-83
2021/06/23 06:58:14;;;;;;;18.67;9.83;;;13.80;99.90;;;;;;5056319;28;20286;-80
2021/06/23 07:00:41;;;;;;;18.13;10.30;;;13.80;99.90;;;;;;5056507;28;20293;-81
2021/06/23 07:03:08;;;;;;;21.83;10.07;;;13.90;99.90;;;;;;5056316;28;20211;-80
2021/06/23 07:05:36;;;;;;;20.40;10.13;;;14.00;99.90;;;;;;5056237;28;20274;-80
2021/06/23 07:08:04;;;;;;;17.73;9.07;;;14.10;99.90;;;;;;5055625;28;20283;-80
2021/06/23 07:10:31;;;;;;;13.67;8.27;;;14.30;99.90;;;;;;5055141;28;20279;-81
2021/06/23 07:12:58;;;;;;;14.97;9.03;;;14.20;99.90;;;;;;5056017;28;20558;-79
2021/06/23 07:15:24;;;;;;;14.07;8.73;;;14.50;99.90;;;;;;5055146;28;20227;-79
2021/06/23 07:17:52;;;;;;;22.40;8.80;;;14.50;99.90;;;;;;5055678;28;20210;-81
2021/06/23 07:20:19;;;;;;;13.63;8.60;;;14.10;99.90;;;;;;5055803;28;20231;-80
2021/06/23 07:22:48;;;;;;;18.63;8.57;;;14.50;99.90;;;;;;5055873;28;20250;-82
2021/06/23 07:25:15;;;;;;;16.97;7.77;;;14.90;99.90;;;;;;5055816;28;20211;-80
2021/06/23 07:27:42;;;;;;;21.07;8.37;;;15.00;99.90;;;;;;5055447;28;20289;-82
2021/06/23 07:30:10;;;;;;;21.20;9.13;;;14.90;99.90;;;;;;5056179;28;20209;-80
2021/06/23 07:32:44;;;;;;;16.97;8.60;;;14.80;99.90;;;;;;5055505;28;20242;-84
2021/06/23 07:37:49;;;;;;;19.80;8.87;;;14.80;99.90;;;;;;5055379;28;20228;-80
2021/06/23 07:40:17;;;;;;;14.17;8.13;;;14.70;99.90;;;;;;5055587;28;20259;-80
2021/06/23 07:42:44;;;;;;;17.23;7.87;;;14.50;99.90;;;;;;5055651;28;20287;-80
2021/06/23 07:45:13;;;;;;;15.67;8.13;;;14.90;99.90;;;;;;5055097;28;20242;-82
2021/06/23 07:47:41;;;;;;;16.37;8.20;;;14.80;99.90;;;;;;5055083;28;20247;-83
2021/06/23 07:50:10;;;;;;;17.60;9.00;;;14.60;99.90;;;;;;5055172;28;20740;-80
2021/06/23 07:52:43;;;;;;;19.57;9.50;;;14.60;99.90;;;;;;5055522;28;20200;-80
2021/06/23 08:09:08;;;;;;;15.07;6.80;;;15.20;99.90;;;;;;4980716;28;20206;-80
2021/06/23 08:11:38;;;;;;;19.03;7.20;;;15.30;99.90;;;;;;5049863;28;20207;-80
2021/06/23 08:14:05;;;;;;;13.57;6.63;;;15.30;99.90;;;;;;5054339;28;20212;-80
2021/06/23 08:16:32;;;;;;;17.87;6.80;;;15.30;99.90;;;;;;5054472;28;20234;-80
2021/06/23 08:18:59;;;;;;;18.33;6.60;;;15.60;99.90;;;;;;5054717;28;20228;-80
2021/06/23 08:21:26;;;;;;;18.80;7.67;;;15.80;99.90;;;;;;5054453;28;20674;-80
2021/06/23 08:23:53;;;;;;;15.67;7.13;;;15.50;99.90;;;;;;5054263;28;20629;-80
2021/06/23 08:26:20;;;;;;;15.80;7.33;;;15.30;99.90;;;;;;5054072;28;20270;-82
2021/06/23 08:28:48;;;;;;;16.43;6.83;;;15.20;99.90;;;;;;5053712;28;20594;-80
2021/06/23 08:31:15;;;;;;;16.87;7.87;;;15.20;99.90;;;;;;5054010;28;20258;-80
2021/06/23 08:33:42;;;;;;;16.97;8.10;;;15.20;99.90;;;;;;5053988;28;20267;-83
2021/06/23 08:36:10;;;;;;;12.47;8.20;;;15.30;99.90;;;;;;5053690;28;20232;-80
2021/06/23 08:38:37;;;;;;;15.10;7.67;;;15.60;99.90;;;;;;5054627;28;20211;-80
2021/06/23 08:41:04;;;;;;;16.97;7.30;;;15.70;99.90;;;;;;5054187;28;20635;-80
2021/06/23 08:43:32;;;;;;;18.73;7.63;;;15.70;99.90;;;;;;5053967;28;20275;-83
2021/06/23 08:46:02;;;;;;;15.00;7.53;;;15.90;99.90;;;;;;5053411;28;20408;-80
2021/06/23 08:48:30;;;;;;;14.60;7.10;;;16.10;99.90;;;;;;5054111;28;20246;-80
2021/06/23 08:51:02;;;;;;;13.10;6.97;;;16.00;99.90;;;;;;5053315;28;20296;-79
2021/06/23 08:53:29;;;;;;;16.50;6.90;;;16.00;99.90;;;;;;5053529;28;20200;-81
2021/06/23 08:55:55;;;;;;;16.10;6.63;;;15.90;99.90;;;;;;5054253;28;20215;-79
2021/06/23 08:58:22;;;;;;;14.13;6.97;;;16.00;99.90;;;;;;5053461;28;20202;-79
2021/06/23 09:00:49;;;;;;;15.83;6.70;;;16.00;99.90;;;;;;5053921;28;20258;-78
2021/06/23 09:03:18;;;;;;;15.07;6.97;;;16.10;99.90;;;;;;5053529;28;20551;-79
2021/06/23 09:05:53;;;;;;;19.97;7.37;;;16.40;99.90;;;;;;5054100;28;20204;-78
2021/06/23 09:08:32;;;;;;;18.70;7.13;;;16.70;99.90;;;;;;5053967;28;20299;-78
2021/06/23 09:10:59;;;;;;;19.27;7.07;;;16.40;99.90;;;;;;5053801;28;20286;-78
2021/06/23 09:13:26;;;;;;;14.70;7.10;;;16.70;99.90;;;;;;5053333;28;20564;-80
2021/06/23 09:15:56;;;;;;;14.80;6.70;;;16.50;99.90;;;;;;5053165;28;20294;-79
2021/06/23 09:18:28;;;;;;;17.83;7.13;;;16.80;99.90;;;;;;5039261;28;20649;-81
2021/06/23 09:20:58;;;;;;;10.63;6.43;;;17.40;99.90;;;;;;5037655;28;20874;-80
2021/06/23 09:23:45;;;;;;;15.70;7.00;;;17.30;99.90;;;;;;5037254;28;20228;-79
2021/06/23 09:26:17;;;;;;;10.70;7.03;;;16.80;99.90;;;;;;5051183;28;20188;-79
2021/06/23 09:28:45;;;;;;;13.87;6.60;;;17.50;99.90;;;;;;5053160;28;20230;-80
2021/06/23 09:31:13;;;;;;;11.77;5.80;;;17.40;99.90;;;;;;5053339;28;20283;-78
2021/06/23 09:33:41;;;;;;;11.00;6.67;;;17.20;99.90;;;;;;5051850;28;20228;-79
2021/06/23 09:36:10;;;;;;;14.90;6.40;;;17.00;99.90;;;;;;5050367;28;20678;-80
2021/06/23 09:38:43;;;;;;;13.40;6.23;;;17.20;99.90;;;;;;5051267;28;20588;-80
2021/06/23 09:41:21;;;;;;;12.97;6.57;;;17.00;99.90;;;;;;5053006;28;20708;-79
2021/06/23 09:43:51;;;;;;;20.93;5.83;;;17.10;99.90;;;;;;5053405;28;20216;-80
2021/06/23 09:46:21;;;;;;;14.97;5.60;;;16.90;99.90;;;;;;5052606;28;20283;-80
2021/06/23 09:48:51;;;;;;;12.57;5.40;;;17.00;99.90;;;;;;5052272;28;20224;-80
2021/06/23 09:51:20;;;;;;;13.80;5.13;;;16.40;99.90;;;;;;5047093;28;20610;-81
2021/06/23 09:53:47;;;;;;;10.37;5.80;;;16.40;99.90;;;;;;5052698;28;20738;-81
2021/06/23 09:56:32;;;;;;;17.57;6.07;;;16.50;99.90;;;;;;5052723;28;20202;-78
2021/06/23 09:59:00;;;;;;;12.40;5.87;;;16.40;99.90;;;;;;5049451;28;20206;-79
2021/06/23 10:01:29;;;;;;;12.37;6.03;;;16.30;99.90;;;;;;5047112;28;20224;-81
2021/06/23 10:04:05;;;;;;;12.57;5.47;;;16.10;99.90;;;;;;5051251;28;20289;-77
2021/06/23 10:06:33;;;;;;;10.57;5.70;;;16.00;99.90;;;;;;5052954;28;20226;-80
2021/06/23 10:09:20;;;;;;;12.07;5.40;;;16.00;99.90;;;;;;5051748;28;20705;-80
2021/06/23 10:11:49;;;;;;;13.70;5.73;;;16.40;99.90;;;;;;5049947;28;20196;-80
2021/06/23 10:14:16;;;;;;;12.43;5.90;;;16.50;99.90;;;;;;5041882;28;20629;-80
2021/06/23 10:16:44;;;;;;;9.30;5.67;;;16.90;99.90;;;;;;5048233;28;20312;-79
2021/06/23 10:19:12;;;;;;;15.93;6.20;;;17.10;99.90;;;;;;5050505;28;20575;-80
2021/06/23 10:21:40;;;;;;;11.47;6.27;;;16.80;99.90;;;;;;5051191;28;20204;-80
2021/06/23 10:24:10;;;;;;;9.60;5.57;;;16.60;99.90;;;;;;5051364;28;20203;-81
2021/06/23 10:26:40;;;;;;;12.20;6.07;;;16.90;99.90;;;;;;5042520;28;20223;-80
2021/06/23 10:29:09;;;;;;;16.20;6.10;;;16.80;99.90;;;;;;5037863;28;20276;-80
2021/06/23 10:31:37;;;;;;;20.73;6.63;;;16.90;99.90;;;;;;5051660;28;20188;-81
2021/06/23 10:34:04;;;;;;;12.70;6.57;;;17.30;99.90;;;;;;5051350;28;20678;-81
2021/06/23 10:36:34;;;;;;;13.37;6.40;;;17.10;99.90;;;;;;5051807;28;20236;-82
2021/06/23 10:39:04;;;;;;;18.60;6.60;;;17.10;99.90;;;;;;5057382;28;20664;-82
2021/06/23 10:41:36;;;;;;;11.87;7.00;;;17.00;99.90;;;;;;5050955;28;20196;-80
2021/06/23 10:44:26;;;;;;;12.13;7.83;;;16.80;99.90;;;;;;5048502;28;20291;-79
2021/06/23 10:46:56;;;;;;;15.57;7.47;;;16.50;99.90;;;;;;5054175;28;20228;-80
2021/06/23 10:49:43;;;;;;;15.77;7.63;;;16.50;99.90;;;;;;5055076;28;20299;-81
2021/06/23 10:52:37;;;;;;;14.77;7.67;;;16.80;99.90;;;;;;5048090;28;20200;-80
2021/06/23 10:55:21;;;;;;;16.70;8.23;;;17.00;99.90;;;;;;5054722;28;20200;-81
2021/06/23 10:57:49;;;;;;;20.17;8.20;;;16.90;99.90;;;;;;5039020;28;20209;-80
2021/06/23 11:00:30;;;;;;;16.10;8.37;;;17.30;99.90;;;;;;5055014;28;20299;-80
2021/06/23 11:03:03;;;;;;;18.40;8.27;;;17.50;99.90;;;;;;5054878;28;20204;-80
2021/06/23 11:05:38;;;;;;;13.90;8.20;;;17.70;99.90;;;;;;5055434;28;20287;-81
2021/06/23 11:08:32;;;;;;;14.87;8.30;;;17.90;99.90;;;;;;5052657;28;20258;-81
2021/06/23 11:11:04;;;;;;;15.43;8.73;;;17.50;99.90;;;;;;5050988;28;20226;-80
2021/06/23 11:13:33;;;;;;;13.50;8.27;;;17.70;99.90;;;;;;5054466;28;20277;-80
2021/06/23 11:16:01;;;;;;;20.37;9.50;;;17.50;99.90;;;;;;5047851;28;20284;-80
2021/06/23 11:18:32;;;;;;;20.73;10.23;;;17.80;99.90;;;;;;5053956;28;20211;-82
2021/06/23 11:21:01;;;;;;;14.63;9.80;;;17.50;99.90;;;;;;5054046;28;20196;-81
2021/06/23 11:23:53;;;;;;;16.50;9.60;;;17.30;99.90;;;;;;5050765;28;20211;-78
2021/06/23 11:26:46;;;;;;;13.53;9.50;;;17.40;99.90;;;;;;5054665;28;20287;-79
2021/06/23 11:29:36;;;;;;;14.73;9.47;;;18.00;99.90;;;;;;5054261;28;20224;-81
2021/06/23 11:32:25;;;;;;;17.27;10.03;;;18.10;99.90;;;;;;5059456;28;20606;-81
2021/06/23 11:35:00;;;;;;;17.80;10.20;;;18.40;99.90;;;;;;5052696;28;20627;-82
2021/06/23 11:37:32;;;;;;;14.10;9.93;;;18.40;99.90;;;;;;5052243;28;20195;-80
2021/06/23 11:40:16;;;;;;;17.83;9.77;;;18.80;99.90;;;;;;5052636;28;20322;-80
2021/06/23 11:42:43;;;;;;;17.60;9.83;;;19.20;99.90;;;;;;5053009;28;20219;-81
2021/06/23 11:45:11;;;;;;;14.63;9.03;;;19.10;99.90;;;;;;5054915;28;20228;-81
2021/06/23 11:47:39;;;;;;;14.83;9.53;;;19.30;99.90;;;;;;5052225;28;20302;-81
2021/06/23 11:50:07;;;;;;;12.83;8.90;;;19.80;99.90;;;;;;5055784;28;20200;-80
2021/06/23 11:52:35;;;;;;;18.33;9.67;;;20.00;99.90;;;;;;5053950;28;20201;-80
2021/06/23 11:55:02;;;;;;;19.80;8.80;;;20.90;99.90;;;;;;5057496;28;20192;-80
2021/06/23 11:57:30;;;;;;;14.20;9.77;;;21.30;99.90;;;;;;5056657;28;20616;-82
2021/06/23 11:59:57;;;;;;;16.03;9.27;;;20.80;99.90;;;;;;5058404;28;20200;-82
2021/06/23 12:02:26;;;;;;;13.97;8.97;;;20.90;99.90;;;;;;5060537;28;20211;-81
2021/06/23 12:04:53;;;;;;;16.83;9.13;;;21.20;99.90;;;;;;5058437;28;20200;-80
2021/06/23 12:07:20;;;;;;;14.60;9.13;;;20.90;99.90;;;;;;5058749;28;20315;-79
2021/06/23 12:09:47;;;;;;;12.80;9.83;;;21.00;99.90;;;;;;5057723;28;20761;-80
2021/06/23 12:12:14;;;;;;;14.30;9.65;;;21.40;99.90;;;;;;5056387;28;20246;-80
2021/06/23 12:14:42;;;;;;;15.52;9.25;;;21.00;99.90;;;;;;5055218;28;20226;-81
2021/06/23 12:17:09;;;;;;;16.67;9.80;;;21.10;99.90;;;;;;5055170;28;20288;-81
2021/06/23 12:19:38;;;;;;;14.93;9.97;;;20.90;99.90;;;;;;5053861;28;20913;-81
2021/06/23 12:22:05;;;;;;;17.67;9.63;;;21.30;99.90;;;;;;5059307;28;20247;-81
2021/06/23 12:24:32;;;;;;;15.67;9.70;;;21.20;99.90;;;;;;5055779;28;20212;-81
2021/06/23 12:26:59;;;;;;;14.77;9.85;;;21.20;99.90;;;;;;5058763;28;20307;-80
2021/06/23 12:29:26;;;;;;;14.37;9.57;;;21.40;99.90;;;;;;5059922;28;20283;-81
2021/06/23 12:31:55;;;;;;;16.70;10.03;;;21.30;99.90;;;;;;5057861;28;20283;-82
2021/06/23 12:34:22;;;;;;;12.07;9.63;;;22.10;99.90;;;;;;5056425;28;20196;-81
2021/06/23 12:36:49;;;;;;;12.88;9.70;;;22.00;99.90;;;;;;5058840;28;20292;-80
2021/06/23 12:39:15;;;;;;;20.00;9.70;;;21.90;99.90;;;;;;5058685;28;20231;-82
2021/06/23 12:41:42;;;;;;;15.23;10.37;;;21.50;99.90;;;;;;5057858;28;20725;-79
2021/06/23 12:44:09;;;;;;;15.75;10.00;;;21.60;99.90;;;;;;5058969;28;20200;-80
2021/06/23 12:46:36;;;;;;;17.80;10.93;;;21.80;99.90;;;;;;5057080;28;20227;-80
2021/06/23 12:49:04;;;;;;;14.98;10.10;;;20.90;99.90;;;;;;5056579;28;20313;-80
2021/06/23 12:51:31;;;;;;;17.03;10.80;;;20.50;99.90;;;;;;5058809;28;20192;-81
2021/06/23 12:53:58;;;;;;;14.87;9.50;;;20.10;99.90;;;;;;5058296;28;20276;-79
2021/06/23 12:56:25;;;;;;;14.33;10.33;;;19.80;99.90;;;;;;5057295;28;20196;-80
2021/06/23 12:58:52;;;;;;;19.43;10.47;;;19.30;99.90;;;;;;5055960;28;20200;-81
2021/06/23 13:01:19;;;;;;;13.77;10.30;;;19.10;99.90;;;;;;5054950;28;20235;-80
2021/06/23 13:03:47;;;;;;;13.37;10.63;;;19.30;99.90;;;;;;5054232;28;20662;-79